createdAt,value
2019-05-20T00:02:02.684Z,98.60
2019-05-20T00:04:33.814Z,99.10
2019-05-20T00:07:04.666Z,99.50
2019-05-20T00:09:35.079Z,99.60
2019-05-20T00:12:05.821Z,99.50
2019-05-20T00:14:36.235Z,99.50
2019-05-20T00:17:06.665Z,99.60
2019-05-20T00:19:37.003Z,99.90
2019-05-20T00:22:07.417Z,99.70
2019-05-20T00:24:38.371Z,99.60
2019-05-20T00:27:08.708Z,99.60
2019-05-20T00:29:39.127Z,99.70
2019-05-20T00:32:09.495Z,99.80
2019-05-20T00:34:40.346Z,99.90
2019-05-20T00:37:10.781Z,99.90
2019-05-20T00:40:00.611Z,99.90
2019-05-20T00:42:30.983Z,99.90
2019-05-20T00:45:01.436Z,99.90
2019-05-20T00:47:31.870Z,99.90
2019-05-20T00:50:03.123Z,99.90
2019-05-20T00:52:34.382Z,99.90
2019-05-20T00:55:07.215Z,99.90
2019-05-20T00:57:37.842Z,99.90
2019-05-20T01:00:08.532Z,99.90
2019-05-20T01:02:38.864Z,99.90
2019-05-20T01:05:09.618Z,99.90
2019-05-20T01:07:40.007Z,99.90
2019-05-20T01:10:10.355Z,99.90
2019-05-20T01:12:40.990Z,99.90
2019-05-20T01:15:11.412Z,99.90
2019-05-20T01:17:41.854Z,99.90
2019-05-20T01:20:12.744Z,99.90
2019-05-20T01:22:43.093Z,99.90
2019-05-20T01:25:14.275Z,99.90
2019-05-20T01:27:45.319Z,99.90
2019-05-20T01:30:16.121Z,99.90
2019-05-20T01:32:46.817Z,99.90
2019-05-20T01:35:17.386Z,99.90
2019-05-20T01:37:47.798Z,99.90
2019-05-20T01:40:18.200Z,99.90
2019-05-20T01:42:48.563Z,99.90
2019-05-20T01:45:18.947Z,99.90
2019-05-20T01:47:49.368Z,99.90
2019-05-20T01:50:19.803Z,99.90
2019-05-20T01:52:50.178Z,99.90
2019-05-20T01:55:20.590Z,99.90
2019-05-20T01:57:51.460Z,99.90
2019-05-20T02:00:22.439Z,99.90
2019-05-20T02:02:53.598Z,99.90
2019-05-20T02:05:24.339Z,99.90
2019-05-20T02:07:55.088Z,99.90
2019-05-20T02:10:25.475Z,99.90
2019-05-20T02:12:56.188Z,99.90
2019-05-20T02:15:28.217Z,99.90
2019-05-20T02:17:58.605Z,99.90
2019-05-20T02:20:29.290Z,99.90
2019-05-20T02:23:15.339Z,99.90
2019-05-20T02:25:49.554Z,99.90
2019-05-20T02:28:19.895Z,99.90
2019-05-20T02:30:50.295Z,99.90
2019-05-20T02:33:20.814Z,99.90
2019-05-20T02:35:51.177Z,99.90
2019-05-20T02:38:21.539Z,99.90
2019-05-20T02:40:52.295Z,99.90
2019-05-20T02:43:22.691Z,99.90
2019-05-20T02:45:53.036Z,99.90
2019-05-20T02:48:24.143Z,99.90
2019-05-20T02:50:54.510Z,99.90
2019-05-20T02:53:25.194Z,99.90
2019-05-20T02:55:56.092Z,99.90
2019-05-20T02:58:26.906Z,99.90
2019-05-20T03:00:57.253Z,99.90
2019-05-20T03:03:27.925Z,99.90
2019-05-20T03:05:58.362Z,99.90
2019-05-20T03:08:28.703Z,99.90
2019-05-20T03:10:59.416Z,99.90
2019-05-20T03:13:30.169Z,99.90
2019-05-20T03:16:00.564Z,99.90
2019-05-20T03:18:31.021Z,99.90
2019-05-20T03:21:01.423Z,99.90
2019-05-20T03:23:31.791Z,99.90
2019-05-20T03:26:02.597Z,99.90
2019-05-20T03:28:52.789Z,99.90
2019-05-20T03:31:23.150Z,99.90
2019-05-20T03:33:53.587Z,99.90
2019-05-20T03:36:24.476Z,99.90
2019-05-20T03:38:54.929Z,99.90
2019-05-20T03:41:25.656Z,99.90
2019-05-20T03:43:56.005Z,99.90
2019-05-20T03:46:26.375Z,99.90
2019-05-20T03:48:56.816Z,99.90
2019-05-20T03:51:27.208Z,99.90
2019-05-20T03:53:57.624Z,99.90
2019-05-20T03:56:27.980Z,99.90
2019-05-20T03:58:58.354Z,99.90
2019-05-20T04:01:28.761Z,99.90
2019-05-20T04:03:59.186Z,99.90
2019-05-20T04:06:29.552Z,99.90
2019-05-20T04:09:00.341Z,99.90
2019-05-20T04:11:30.768Z,99.90
2019-05-20T04:14:01.200Z,99.90
2019-05-20T04:16:32.240Z,99.90
2019-05-20T04:19:03.019Z,99.90
2019-05-20T04:21:33.696Z,99.90
2019-05-20T04:24:04.967Z,99.90
2019-05-20T04:26:35.474Z,99.90
2019-05-20T04:29:05.817Z,99.90
2019-05-20T04:31:36.195Z,99.90
2019-05-20T04:34:06.963Z,99.90
2019-05-20T04:36:37.506Z,99.90
2019-05-20T04:39:07.879Z,99.90
2019-05-20T04:41:38.636Z,99.90
2019-05-20T04:44:09.004Z,99.90
2019-05-20T04:46:39.382Z,99.90
2019-05-20T04:49:09.759Z,99.90
2019-05-20T04:51:40.103Z,99.70
2019-05-20T04:54:10.521Z,99.70
2019-05-20T04:56:40.908Z,99.70
2019-05-20T04:59:11.302Z,99.60
2019-05-20T05:01:41.687Z,99.40
2019-05-20T05:04:12.100Z,99.20
2019-05-20T05:06:42.491Z,99.10
2019-05-20T05:09:15.616Z,99.00
2019-05-20T05:11:45.210Z,99.00
2019-05-20T05:14:16.057Z,98.50
2019-05-20T05:16:46.419Z,98.30
2019-05-20T05:19:36.386Z,97.50
2019-05-20T05:22:06.754Z,97.10
2019-05-20T05:24:37.525Z,97.00
2019-05-20T05:27:08.250Z,96.40
2019-05-20T05:29:38.990Z,96.50
2019-05-20T05:32:09.732Z,95.80
2019-05-20T05:34:40.470Z,95.90
2019-05-20T05:37:10.822Z,96.40
2019-05-20T05:39:41.180Z,96.40
2019-05-20T05:42:11.954Z,96.30
2019-05-20T05:44:42.318Z,95.70
2019-05-20T05:47:13.116Z,95.50
2019-05-20T05:49:43.481Z,95.60
2019-05-20T05:52:14.191Z,95.90
2019-05-20T05:54:44.633Z,95.10
2019-05-20T05:57:14.967Z,95.00
2019-05-20T05:59:45.671Z,94.40
2019-05-20T06:02:16.314Z,94.60
2019-05-20T06:04:46.704Z,94.90
2019-05-20T06:07:17.096Z,94.90
2019-05-20T06:09:47.861Z,94.80
2019-05-20T06:12:18.251Z,94.00
2019-05-20T06:14:48.617Z,93.40
2019-05-20T06:17:18.963Z,92.90
2019-05-20T06:19:49.834Z,93.40
2019-05-20T06:22:20.186Z,92.90
2019-05-20T06:24:50.871Z,92.20
2019-05-20T06:27:22.246Z,92.30
2019-05-20T06:29:52.780Z,92.90
2019-05-20T06:32:23.460Z,92.40
2019-05-20T06:34:54.061Z,91.90
2019-05-20T06:37:26.149Z,92.00
2019-05-20T06:39:56.885Z,92.00
2019-05-20T06:42:27.260Z,91.50
2019-05-20T06:44:58.027Z,91.20
2019-05-20T06:47:28.445Z,90.70
2019-05-20T06:49:58.837Z,90.80
2019-05-20T06:52:35.950Z,90.70
2019-05-20T06:55:02.006Z,91.00
2019-05-20T06:57:32.709Z,91.00
2019-05-20T07:00:06.007Z,90.70
2019-05-20T07:02:36.818Z,89.60
2019-05-20T07:05:28.593Z,88.50
2019-05-20T07:08:01.290Z,88.40
2019-05-20T07:10:32.082Z,87.30
2019-05-20T07:13:02.980Z,87.50
2019-05-20T07:15:33.747Z,85.60
2019-05-20T07:18:04.099Z,85.10
2019-05-20T07:20:34.859Z,84.20
2019-05-20T07:23:05.268Z,84.20
2019-05-20T07:25:35.640Z,83.70
2019-05-20T07:28:06.004Z,83.20
2019-05-20T07:30:36.418Z,79.70
2019-05-20T07:33:06.794Z,80.00
2019-05-20T07:35:57.692Z,80.10
2019-05-20T07:38:28.085Z,76.80
2019-05-20T07:40:58.447Z,80.00
2019-05-20T07:43:28.817Z,80.20
2019-05-20T07:45:59.522Z,78.60
2019-05-20T07:48:30.083Z,78.30
2019-05-20T07:51:00.722Z,78.40
2019-05-20T07:53:31.110Z,77.30
2019-05-20T07:56:15.523Z,77.10
2019-05-20T07:58:50.177Z,73.90
2019-05-20T08:01:20.545Z,71.60
2019-05-20T08:03:51.265Z,71.00
2019-05-20T08:06:21.683Z,71.60
2019-05-20T08:08:52.301Z,66.60
2019-05-20T08:11:22.715Z,65.90
2019-05-20T08:13:53.437Z,66.60
2019-05-20T08:16:24.200Z,65.80
2019-05-20T08:18:54.544Z,66.00
2019-05-20T08:21:25.561Z,60.40
2019-05-20T08:23:56.327Z,59.90
2019-05-20T08:26:26.758Z,57.30
2019-05-20T08:28:57.157Z,56.20
2019-05-20T08:31:27.489Z,55.20
2019-05-20T08:33:57.977Z,55.00
2019-05-20T08:36:28.709Z,56.10
2019-05-20T08:38:59.721Z,52.90
2019-05-20T08:41:30.204Z,49.10
2019-05-20T08:44:00.589Z,51.40
2019-05-20T08:46:30.973Z,52.70
2019-05-20T08:49:01.354Z,51.00
2019-05-20T08:51:31.952Z,49.90
2019-05-20T08:54:02.286Z,49.40
2019-05-20T08:56:32.704Z,48.50
2019-05-20T08:59:03.053Z,48.20
2019-05-20T09:01:33.457Z,50.50
2019-05-20T09:04:04.360Z,48.40
2019-05-20T09:06:34.730Z,46.90
2019-05-20T09:09:07.423Z,48.00
2019-05-20T09:11:38.040Z,46.50
2019-05-20T09:14:08.448Z,49.30
2019-05-20T09:16:39.482Z,45.80
2019-05-20T09:19:09.973Z,45.50
2019-05-20T09:21:40.360Z,46.20
2019-05-20T09:24:10.699Z,45.00
2019-05-20T09:26:41.052Z,47.50
2019-05-20T09:29:11.739Z,46.00
2019-05-20T09:31:42.875Z,47.90
2019-05-20T09:34:13.508Z,47.90
2019-05-20T09:36:45.111Z,44.80
2019-05-20T09:39:15.911Z,45.00
2019-05-20T09:41:46.953Z,43.90
2019-05-20T09:44:17.340Z,44.30
2019-05-20T09:46:47.798Z,42.50
2019-05-20T09:49:18.322Z,43.00
2019-05-20T09:51:48.677Z,42.60
2019-05-20T09:54:19.067Z,44.00
2019-05-20T09:56:49.408Z,42.50
2019-05-20T09:59:19.828Z,42.20
2019-05-20T10:01:50.539Z,40.10
2019-05-20T10:04:20.851Z,41.40
2019-05-20T10:06:51.309Z,40.90
2019-05-20T10:09:22.005Z,42.20
2019-05-20T10:11:52.458Z,39.90
2019-05-20T10:14:23.060Z,40.10
2019-05-20T10:16:53.446Z,38.80
2019-05-20T10:19:24.082Z,38.90
2019-05-20T10:21:54.497Z,38.70
2019-05-20T10:24:24.869Z,39.70
2019-05-20T10:26:55.939Z,39.00
2019-05-20T10:29:27.156Z,38.90
2019-05-20T10:31:57.549Z,39.30
2019-05-20T10:34:27.913Z,37.90
2019-05-20T10:36:59.063Z,37.20
2019-05-20T10:39:29.765Z,37.30
2019-05-20T10:42:00.098Z,36.60
2019-05-20T10:44:30.779Z,38.20
2019-05-20T10:47:01.460Z,36.90
2019-05-20T10:49:31.797Z,38.60
2019-05-20T10:52:02.187Z,36.80
2019-05-20T10:54:33.450Z,36.60
2019-05-20T10:57:03.876Z,35.10
2019-05-20T10:59:34.290Z,36.40
2019-05-20T11:02:05.357Z,35.50
2019-05-20T11:04:35.770Z,36.10
2019-05-20T11:07:06.118Z,36.20
2019-05-20T11:09:36.446Z,37.50
2019-05-20T11:12:06.855Z,37.50
2019-05-20T11:14:37.764Z,37.70
2019-05-20T11:17:08.157Z,37.80
2019-05-20T11:19:38.475Z,36.80
2019-05-20T11:22:09.156Z,38.40
2019-05-20T11:24:39.525Z,37.30
2019-05-20T11:27:09.873Z,37.00
2019-05-20T11:29:40.664Z,34.30
2019-05-20T11:32:11.110Z,35.20
2019-05-20T11:34:41.854Z,35.70
2019-05-20T11:37:12.246Z,33.90
2019-05-20T11:39:42.621Z,34.20
2019-05-20T11:42:13.051Z,33.70
2019-05-20T11:44:43.445Z,33.70
2019-05-20T11:47:13.801Z,34.30
2019-05-20T11:49:44.148Z,34.70
2019-05-20T11:52:14.528Z,34.80
2019-05-20T11:54:45.257Z,34.90
2019-05-20T11:57:15.609Z,34.90
2019-05-20T11:59:45.934Z,34.70
2019-05-20T12:02:16.356Z,35.60
2019-05-20T12:04:46.761Z,35.70
2019-05-20T12:07:17.210Z,36.30
2019-05-20T12:09:49.936Z,37.70
2019-05-20T12:12:19.613Z,38.00
2019-05-20T12:14:52.769Z,40.30
2019-05-20T12:17:23.497Z,40.10
2019-05-20T12:19:54.297Z,40.10
2019-05-20T12:22:24.922Z,41.50
2019-05-20T12:24:55.329Z,41.40
2019-05-20T12:27:26.010Z,42.10
2019-05-20T12:29:56.373Z,41.10
2019-05-20T12:32:26.939Z,41.00
2019-05-20T12:34:57.258Z,40.30
2019-05-20T12:37:27.586Z,40.60
2019-05-20T12:40:07.182Z,40.30
2019-05-20T12:42:30.100Z,40.20
2019-05-20T12:45:00.460Z,39.90
2019-05-20T12:47:31.178Z,39.40
2019-05-20T12:50:01.517Z,39.20
2019-05-20T12:52:31.882Z,39.10
2019-05-20T12:55:07.752Z,38.30
2019-05-20T12:57:34.801Z,38.10
2019-05-20T13:00:12.003Z,38.60
2019-05-20T13:02:45.475Z,39.30
2019-05-20T13:05:16.213Z,40.00
2019-05-20T13:07:46.871Z,39.90
2019-05-20T13:10:28.817Z,40.60
2019-05-20T13:12:49.271Z,40.30
2019-05-20T13:15:19.841Z,39.90
2019-05-20T13:17:50.290Z,41.30
2019-05-20T13:20:20.687Z,41.10
2019-05-20T13:22:51.154Z,42.30
2019-05-20T13:25:22.191Z,42.50
2019-05-20T13:27:56.302Z,42.50
2019-05-20T13:30:26.816Z,42.00
2019-05-20T13:32:57.878Z,42.10
2019-05-20T13:35:28.285Z,42.70
2019-05-20T13:37:58.641Z,43.30
2019-05-20T13:40:45.101Z,43.40
2019-05-20T13:43:01.126Z,44.00
2019-05-20T13:45:31.809Z,44.70
2019-05-20T13:48:02.763Z,45.10
2019-05-20T13:50:33.389Z,46.30
2019-05-20T13:53:04.107Z,45.70
2019-05-20T13:55:34.711Z,45.70
2019-05-20T13:58:05.084Z,45.40
2019-05-20T14:00:35.454Z,45.80
2019-05-20T14:03:05.791Z,46.60
2019-05-20T14:05:37.043Z,47.30
2019-05-20T14:08:07.450Z,48.20
2019-05-20T14:10:37.850Z,51.10
2019-05-20T14:13:08.529Z,49.10
2019-05-20T14:15:38.888Z,51.00
2019-05-20T14:18:09.265Z,51.80
2019-05-20T14:20:39.699Z,53.10
2019-05-20T14:23:10.149Z,52.60
2019-05-20T14:25:40.550Z,56.30
2019-05-20T14:28:10.936Z,55.90
2019-05-20T14:30:41.305Z,57.60
2019-05-20T14:33:11.714Z,58.60
2019-05-20T14:35:42.402Z,60.70
2019-05-20T14:38:12.899Z,66.10
2019-05-20T14:40:44.179Z,67.50
2019-05-20T14:43:14.575Z,70.50
2019-05-20T14:45:45.409Z,79.80
2019-05-20T14:48:16.001Z,79.00
2019-05-20T14:50:46.446Z,81.30
2019-05-20T14:53:16.833Z,84.30
2019-05-20T14:55:47.204Z,86.00
2019-05-20T14:58:17.578Z,88.80
2019-05-20T15:00:47.965Z,91.10
2019-05-20T15:20:55.233Z,99.70
2019-05-20T15:23:25.992Z,99.90
2019-05-20T15:27:03.870Z,99.50
2019-05-20T15:30:07.455Z,96.60
2019-05-20T15:32:37.805Z,96.20
2019-05-20T15:35:08.359Z,97.50
2019-05-20T15:37:39.092Z,97.60
2019-05-20T15:40:09.470Z,98.30
2019-05-20T15:42:39.798Z,98.50
2019-05-20T15:45:10.463Z,99.50
2019-05-20T15:47:41.535Z,98.70
2019-05-20T15:50:12.273Z,99.10
2019-05-20T15:52:43.102Z,99.70
2019-05-20T15:55:14.151Z,99.90
2019-05-20T15:57:44.926Z,99.90
2019-05-20T16:00:16.478Z,99.90
2019-05-20T16:02:46.822Z,99.90
2019-05-20T16:05:17.232Z,99.70
2019-05-20T16:07:47.636Z,99.70
2019-05-20T16:10:18.266Z,99.90
2019-05-20T16:12:48.619Z,99.90
2019-05-20T16:15:19.193Z,99.90
2019-05-20T16:17:49.632Z,99.90
2019-05-20T16:20:20.382Z,99.70
2019-05-20T16:22:51.170Z,99.50
2019-05-20T16:25:21.499Z,99.10
2019-05-20T16:27:52.225Z,99.10
2019-05-20T16:30:22.917Z,98.40
2019-05-20T16:32:53.326Z,99.00
2019-05-20T16:35:23.687Z,99.40
2019-05-20T16:37:54.924Z,98.10
2019-05-20T16:40:25.546Z,97.50
2019-05-20T16:42:56.176Z,97.30
2019-05-20T16:45:26.934Z,97.80
2019-05-20T16:47:57.286Z,98.90
2019-05-20T16:50:28.295Z,98.40
2019-05-20T16:52:58.937Z,98.20
2019-05-20T16:55:29.837Z,98.70
2019-05-20T16:58:00.241Z,99.40
2019-05-20T17:00:32.294Z,99.30
2019-05-20T17:03:03.135Z,99.20
2019-05-20T17:05:33.943Z,99.20
2019-05-20T17:08:04.310Z,98.90
2019-05-20T17:10:34.707Z,99.20
2019-05-20T17:13:05.448Z,99.50
2019-05-20T17:15:36.082Z,99.90
2019-05-20T17:18:06.484Z,99.90
2019-05-20T17:20:37.017Z,99.90
2019-05-20T17:23:07.761Z,99.90
2019-05-20T17:25:38.431Z,99.90
2019-05-20T17:28:09.135Z,99.90
2019-05-20T17:30:45.597Z,99.90
2019-05-20T17:33:12.192Z,99.90
2019-05-20T17:35:42.638Z,99.90
2019-05-20T17:38:13.091Z,99.90
2019-05-20T17:40:43.874Z,99.90
2019-05-20T17:43:14.787Z,99.90
2019-05-20T17:45:45.204Z,99.90
2019-05-20T17:48:15.578Z,99.90
2019-05-20T17:50:46.011Z,99.90
2019-05-20T17:53:16.379Z,99.90
2019-05-20T17:55:46.804Z,99.90
2019-05-20T17:58:17.174Z,99.90
2019-05-20T18:00:47.845Z,99.90
2019-05-20T18:03:18.483Z,99.90
2019-05-20T18:05:48.873Z,99.90
2019-05-20T18:08:19.419Z,99.90
2019-05-20T18:10:49.840Z,99.90
2019-05-20T18:13:20.174Z,99.90
2019-05-20T18:15:50.571Z,99.90
2019-05-20T18:18:20.979Z,99.90
2019-05-20T18:20:51.380Z,99.90
2019-05-20T18:23:21.717Z,99.90
2019-05-20T18:25:52.867Z,99.90
2019-05-20T18:28:23.380Z,99.90
2019-05-20T18:30:54.092Z,99.90
2019-05-20T18:33:25.168Z,99.90
2019-05-20T18:35:55.805Z,99.90
2019-05-20T18:38:26.188Z,99.90
2019-05-20T18:40:56.627Z,99.90
2019-05-20T18:43:27.320Z,99.90
2019-05-20T18:45:57.708Z,99.90
2019-05-20T18:48:28.077Z,99.90
2019-05-20T18:50:58.473Z,99.90
2019-05-20T18:53:28.808Z,99.90
2019-05-20T18:55:59.467Z,99.90
2019-05-20T18:58:29.974Z,99.90
2019-05-20T19:01:01.037Z,99.90
2019-05-20T19:03:31.871Z,99.90
2019-05-20T19:06:03.162Z,99.90
2019-05-20T19:08:33.518Z,99.90
2019-05-20T19:11:03.876Z,99.90
2019-05-20T19:13:34.582Z,99.90
2019-05-20T19:16:04.962Z,99.90
2019-05-20T19:18:35.320Z,99.90
2019-05-20T19:21:05.701Z,99.90
2019-05-20T19:23:36.042Z,99.90
2019-05-20T19:26:06.855Z,99.90
2019-05-20T19:28:37.280Z,99.90
2019-05-20T19:31:08.200Z,99.90
2019-05-20T19:33:38.687Z,99.90
2019-05-20T19:36:09.313Z,99.90
2019-05-20T19:38:39.704Z,99.90
2019-05-20T19:41:10.257Z,99.90
2019-05-20T19:43:40.595Z,99.90
2019-05-20T19:46:11.063Z,99.90
2019-05-20T19:48:41.400Z,99.90
2019-05-20T19:51:11.787Z,99.90
2019-05-20T19:53:42.497Z,99.90
2019-05-20T19:56:12.843Z,99.90
2019-05-20T19:58:43.214Z,99.90
2019-05-20T20:01:13.546Z,99.90
2019-05-20T20:03:44.004Z,99.90
2019-05-20T20:06:15.024Z,99.90
2019-05-20T20:08:45.717Z,99.90
2019-05-20T20:11:16.052Z,99.90
2019-05-20T20:13:46.694Z,99.90
2019-05-20T20:16:18.065Z,99.90
2019-05-20T20:18:48.784Z,99.90
2019-05-20T20:21:21.626Z,99.90
2019-05-20T20:23:52.324Z,99.90
2019-05-20T20:26:23.050Z,99.90
2019-05-20T20:28:53.449Z,99.90
2019-05-20T20:31:24.467Z,99.90
2019-05-20T20:33:55.165Z,99.90
2019-05-20T20:36:25.858Z,99.90
2019-05-20T20:38:56.310Z,99.90
2019-05-20T20:41:27.050Z,99.90
2019-05-20T20:44:17.262Z,99.90
2019-05-20T20:46:47.616Z,99.90
2019-05-20T20:49:18.099Z,99.90
2019-05-20T20:51:48.472Z,99.90
2019-05-20T20:54:18.910Z,99.90
2019-05-20T20:56:49.274Z,99.90
2019-05-20T20:59:19.660Z,99.90
2019-05-20T21:01:50.042Z,99.90
2019-05-20T21:04:20.534Z,99.90
2019-05-20T21:06:50.907Z,99.90
2019-05-20T21:09:21.246Z,99.90
2019-05-20T21:11:52.972Z,99.90
2019-05-20T21:14:23.726Z,99.90
2019-05-20T21:16:54.497Z,99.90
2019-05-20T21:19:24.879Z,99.90
2019-05-20T21:21:55.874Z,99.90
2019-05-20T21:24:26.240Z,99.90
2019-05-20T21:26:56.883Z,99.90
2019-05-20T21:29:35.105Z,99.90
2019-05-20T21:32:05.628Z,99.90
2019-05-20T21:34:36.144Z,99.90
2019-05-20T21:37:06.530Z,99.90
2019-05-20T21:39:37.262Z,99.90
2019-05-20T21:42:07.939Z,99.90
2019-05-20T21:44:38.285Z,99.90
2019-05-20T21:47:08.999Z,99.90
2019-05-20T21:49:39.792Z,99.90
2019-05-20T21:52:10.131Z,99.90
2019-05-20T21:54:40.515Z,99.90
2019-05-20T21:57:10.894Z,99.90
2019-05-20T21:59:41.259Z,99.90
2019-05-20T22:02:12.026Z,99.90
2019-05-20T22:04:43.020Z,99.90
2019-05-20T22:07:13.732Z,99.90
2019-05-20T22:09:44.505Z,99.90
2019-05-20T22:12:14.912Z,99.90
2019-05-20T22:14:45.265Z,99.90
2019-05-20T22:17:15.641Z,99.90
2019-05-20T22:19:45.984Z,99.90
2019-05-20T22:22:25.032Z,99.90
2019-05-20T22:24:55.738Z,99.90
2019-05-20T22:27:26.402Z,99.90
2019-05-20T22:29:56.957Z,99.90
2019-05-20T22:32:27.791Z,99.90
2019-05-20T22:34:58.133Z,99.90
2019-05-20T22:37:28.642Z,99.90
2019-05-20T22:39:59.253Z,99.90
2019-05-20T22:42:29.591Z,99.90
2019-05-20T22:45:00.259Z,99.90
2019-05-20T22:47:30.648Z,99.90
2019-05-20T22:50:01.053Z,99.90
2019-05-20T22:52:31.751Z,99.90
2019-05-20T22:55:02.441Z,99.90
2019-05-20T22:57:32.815Z,99.90
2019-05-20T23:00:03.483Z,99.90
2019-05-20T23:02:33.854Z,99.90
2019-05-20T23:05:04.807Z,99.90
2019-05-20T23:07:35.259Z,99.90
2019-05-20T23:10:08.097Z,99.90
2019-05-20T23:12:38.461Z,99.90
2019-05-20T23:15:08.847Z,99.90
2019-05-20T23:17:39.229Z,99.90
2019-05-20T23:20:10.330Z,99.90
2019-05-20T23:22:40.753Z,99.90
2019-05-20T23:25:11.408Z,99.90
2019-05-20T23:27:41.788Z,99.90
2019-05-20T23:30:12.978Z,99.90
2019-05-20T23:32:43.539Z,99.90
2019-05-20T23:35:13.907Z,99.90
2019-05-20T23:37:44.251Z,99.90
2019-05-20T23:40:34.439Z,99.90
2019-05-20T23:43:04.822Z,99.90
2019-05-20T23:45:35.540Z,99.90
2019-05-20T23:48:05.904Z,99.90
2019-05-20T23:50:36.676Z,99.90
2019-05-20T23:53:07.047Z,99.90
2019-05-20T23:55:37.387Z,99.90
2019-05-20T23:58:07.841Z,99.90
